Data for 08/06/2006

Time Sea-Level Adjusted Pressure Absolute Pressure Temperature Relative Humidity Dew Point   
(mb) (inHg) (mb) (inHg) (C) (F) (%) (C) (F)
00:05 1020 30.12 849 25.07 19.8 67.6 32 2.9 37.1
00:10 1020 30.12 849 25.07 19.7 67.4 32 2.8 37
00:15 1020 30.12 849 25.07 19.6 67.3 32 2.7 36.8
00:20 1020 30.12 849 25.07 19.7 67.4 32 2.7 36.8
00:25 1020 30.12 849 25.07 19.6 67.2 32 2.8 37
00:30 1020 30.12 849 25.07 19.4 67 33 2.8 37
00:35 1020 30.12 849 25.07 19.3 66.8 33 2.9 37.3
00:40 1020 30.12 849 25.07 19.2 66.5 34 3.1 37.6
00:45 1020 30.12 849 25.07 18.9 65.9 35 3.3 37.9
00:50 1020 30.12 849 25.07 18.6 65.4 36 3.2 37.8
00:55 1020 30.12 849 25.07 18.4 65.1 37 3.6 38.5
01:00 1020 30.12 850 25.1 18.2 64.8 37 3.4 38.2
01:05 1020 30.12 850 25.1 18.1 64.6 37 3.5 38.3
01:10 1020 30.12 850 25.1 18.1 64.5 38 3.6 38.4
01:15 1020 30.12 850 25.1 18 64.3 38 3.7 38.6
01:20 1020 30.12 850 25.1 17.8 64 39 3.8 38.8
01:25 1020 30.12 850 25.1 17.5 63.6 40 4 39.2
01:30 1020 30.12 850 25.1 17.4 63.3 41 4 39.2
01:35 1020 30.12 850 25.1 17.3 63.1 40 3.8 38.9
01:40 1020 30.12 849 25.07 17.2 63 41 3.8 38.9
01:45 1020 30.12 849 25.07 17.1 62.9 40 3.7 38.6
01:50 1020 30.12 849 25.07 17.2 62.9 40 3.5 38.3
01:55 1020 30.12 849 25.07 17.2 63 39 3.2 37.8
02:00 1020 30.12 849 25.07 17.3 63.2 38 2.9 37.2
02:05 1020 30.12 849 25.07 17.5 63.5 37 2.9 37.1
02:10 1020 30.12 849 25.07 17.5 63.5 37 2.7 36.9
02:15 1020 30.12 849 25.07 17.4 63.4 37 2.7 36.8
02:20 1020 30.12 849 25.07 17.5 63.5 36 2.3 36.1
02:25 1020 30.12 849 25.07 17.6 63.6 35 2.1 35.8
02:30 1020 30.12 849 25.07 17.7 63.8 35 2 35.6
02:35 1020 30.12 849 25.07 17.8 64.1 34 2 35.5
02:40 1020 30.12 849 25.07 17.8 64.1 34 2 35.5
02:45 1020 30.12 849 25.07 17.9 64.2 34 1.9 35.4
02:50 1020 30.12 849 25.07 17.9 64.3 34 1.9 35.4
02:55 1020 30.12 849 25.07 17.9 64.2 34 1.9 35.5
03:00 1020 30.12 849 25.07 17.9 64.1 34 2 35.5
03:05 1020 30.12 849 25.07 17.8 64.1 34 1.9 35.4
03:10 1020 30.12 849 25.07 17.9 64.1 34 1.9 35.4
03:15 1020 30.12 849 25.07 17.9 64.2 34 1.9 35.4
03:20 1020 30.12 849 25.07 17.8 64 34 2 35.6
03:25 1020 30.12 849 25.07 17.6 63.7 35 2 35.7
03:30 1020 30.12 849 25.07 17.5 63.5 35 2.1 35.8
03:35 1020 30.12 849 25.07 17.6 63.6 34 1.8 35.2
03:40 1020 30.12 849 25.07 17.6 63.6 34 1.8 35.3
03:45 1020 30.12 849 25.07 17.5 63.5 35 2 35.6
03:50 1020 30.12 849 25.07 17.3 63.1 35 1.9 35.5
03:55 1020 30.12 849 25.07 17.2 62.9 36 2 35.6
04:00 1020 30.12 849 25.07 17 62.6 37 2.2 36
04:05 1020 30.12 849 25.07 16.9 62.3 38 2.5 36.5
04:10 1020 30.12 849 25.07 16.7 62.1 38 2.5 36.5
04:15 1020 30.12 850 25.1 16.6 61.9 37 2.2 35.9
04:20 1020 30.12 850 25.1 16.8 62.2 37 2.1 35.8
04:25 1020 30.12 850 25.1 17 62.5 37 2.1 35.9
04:30 1020 30.12 849 25.07 16.9 62.3 37 2.2 35.9
04:35 1020 30.12 849 25.07 16.7 62.1 37 2.3 36.1
04:40 1020 30.12 850 25.1 16.6 61.8 38 2.4 36.3
04:45 1020 30.12 850 25.1 16.4 61.5 39 2.5 36.6
04:50 1020 30.12 850 25.1 16.2 61.1 40 2.6 36.7
04:55 1020 30.12 850 25.1 15.9 60.7 49 5.2 41.3
05:00 1020 30.12 850 25.1 15.7 60.3 43 3.3 37.9
05:05 1020 30.12 850 25.1 15.3 59.5 45 3.4 38.1
05:10 1020 30.12 850 25.1 15.3 59.5 46 3.7 38.7
05:15 1020 30.12 850 25.1 15.1 59.2 45 3.4 38.2
05:20 1020 30.12 850 25.1 15 58.9 45 3.3 37.9
05:25 1020 30.12 850 25.1 15.1 59.2 45 3.3 37.9
05:30 1020 30.12 850 25.1 15.1 59.2 45 3.2 37.8
05:35 1020 30.12 850 25.1 15 58.9 46 3.4 38.1
05:40 1020 30.12 850 25.1 15 59 50 4.6 40.3
05:45 1021 30.15 850 25.1 15.1 59.1 45 3.3 38
05:50 1021 30.15 850 25.1 15 59 44 2.8 37.1
05:55 1021 30.15 850 25.1 15 58.9 47 3.9 39
06:00 1021 30.15 850 25.1 14.9 58.9 45 3.3 37.9
06:05 1021 30.15 850 25.1 14.8 58.6 48 4.1 39.4
06:10 1021 30.15 850 25.1 14.6 58.3 50 4.4 39.8
06:15 1021 30.15 850 25.1 14.5 58 48 3.6 38.5
06:20 1021 30.15 850 25.1 14.4 58 49 3.9 39
06:25 1021 30.15 850 25.1 14.4 57.9 47 3.3 37.9
06:30 1021 30.15 850 25.1 14.5 58.1 47 3.5 38.4
06:35 1021 30.15 850 25.1 14.4 57.9 48 3.6 38.5
06:40 1021 30.15 850 25.1 14.3 57.8 49 3.9 39.1
06:45 1021 30.15 850 25.1 14.4 57.8 50 4 39.3
06:50 1021 30.15 850 25.1 14.6 58.2 50 4.2 39.6
06:55 1021 30.15 850 25.1 14.7 58.4 48 3.9 39.1
07:00 1021 30.15 850 25.1 15.1 59.2 45 3.4 38.1
07:05 1021 30.15 850 25.1 15.5 59.8 44 3.4 38.2
07:10 1021 30.15 850 25.1 15.6 60.1 44 3.4 38.2
07:15 1021 30.15 850 25.1 15.6 60.1 44 3.5 38.4
07:20 1021 30.15 850 25.1 15.7 60.2 45 3.8 38.9
07:25 1021 30.15 850 25.1 15.8 60.4 45 3.8 38.9
07:30 1021 30.15 850 25.1 15.8 60.5 44 3.8 38.9
07:35 1021 30.15 850 25.1 16 60.8 44 3.9 38.9
07:40 1021 30.15 850 25.1 16.2 61.2 43 3.8 38.9
07:45 1021 30.15 850 25.1 16.5 61.7 42 3.8 38.8
07:50 1021 30.15 850 25.1 16.9 62.4 42 3.9 39
07:55 1021 30.15 850 25.1 17.3 63.2 40 3.8 38.9
08:00 1021 30.15 850 25.1 17.6 63.6 40 4.1 39.4
08:05 1021 30.15 850 25.1 17.8 64 40 4.2 39.6
08:10 1021 30.15 850 25.1 18.1 64.6 40 4.3 39.8
08:15 1021 30.15 850 25.1 18.2 64.8 41 4.7 40.5
08:20 1021 30.15 850 25.1 18.3 64.9 41 5 41.1
08:25 1021 30.15 850 25.1 17.8 64.1 43 5.2 41.4
08:30 1021 30.15 850 25.1 17.9 64.1 42 5.1 41.1
08:35 1021 30.15 850 25.1 17.8 64.1 42 5 41
08:40 1021 30.15 850 25.1 17.8 64 40 4.1 39.4
08:45 1021 30.15 850 25.1 18.4 65.1 39 4.4 39.9
08:50 1021 30.15 851 25.13 19.2 66.6 37 4.2 39.5
08:55 1021 30.15 851 25.13 18.9 65.9 37 4.1 39.5
09:00 1021 30.15 851 25.13 18.9 66 37 4.1 39.4
09:05 1021 30.15 851 25.13 18.5 65.2 40 4.7 40.5
09:10 1022 30.18 851 25.13 18.9 65.9 38 4.3 39.7
09:15 1022 30.18 851 25.13 19.1 66.3 37 4.3 39.7
09:20 1022 30.18 851 25.13 19 66.1 38 4.5 40.1
09:25 1022 30.18 851 25.13 19.3 66.7 37 4.6 40.2
09:30 1021 30.15 851 25.13 18.8 65.9 38 4.5 40.1
09:35 1021 30.15 851 25.13 19 66.1 38 4.5 40.1
09:40 1021 30.15 851 25.13 19.2 66.6 37 4.3 39.7
09:45 1021 30.15 851 25.13 19.4 67 36 4.2 39.6
09:50 1021 30.15 851 25.13 20 67.9 35 4.3 39.7
09:55 1021 30.15 851 25.13 21 69.9 34 4.8 40.6
10:00 1021 30.15 851 25.13 21.5 70.8 32 4.5 40.1
10:05 1021 30.15 851 25.13 21.8 71.2 32 4.6 40.3
10:10 1021 30.15 851 25.13 21.8 71.3 32 4.6 40.3
10:15 1021 30.15 851 25.13 22.4 72.3 31 4.6 40.3
10:20 1021 30.15 851 25.13 22.7 72.9 33 6 42.7
10:25 1021 30.15 851 25.13 23 73.5 31 5.4 41.7
10:30 1021 30.15 851 25.13 23.3 73.9 30 4.9 40.7
10:35 1021 30.15 851 25.13 22.3 72.2 31 4.8 40.6
10:40 1021 30.15 851 25.13 22.8 73.1 31 4.9 40.8
10:45 1021 30.15 851 25.13 22.6 72.7 30 4.4 39.9
10:50 1021 30.15 851 25.13 23.1 73.6 29 4.6 40.2
10:55 1021 30.15 851 25.13 24 75.2 28 4.4 39.9
11:00 1021 30.15 851 25.13 24.5 76.1 27 4.6 40.3
11:05 1021 30.15 851 25.13 24.4 76 27 4.6 40.3
11:10 1021 30.15 851 25.13 24.8 76.6 26 4.1 39.5
11:15 1021 30.15 851 25.13 23.8 74.9 29 5.1 41.1
11:20 1021 30.15 851 25.13 23.7 74.6 28 4.5 40
11:25 1021 30.15 850 25.1 23.7 74.7 27 4 39.2
11:30 1021 30.15 850 25.1 23.8 74.8 26 3.6 38.5
11:35 1021 30.15 850 25.1 24.3 75.8 27 4.1 39.4
11:40 1021 30.15 850 25.1 24.5 76.1 27 4.5 40
11:45 1021 30.15 850 25.1 25.2 77.4 25 4.2 39.6
11:50 1021 30.15 850 25.1 25.6 78.1 26 4.8 40.6
11:55 1021 30.15 850 25.1 25.2 77.4 25 4.1 39.4
12:00 1021 30.15 850 25.1 25.9 78.6 24 4.2 39.5
12:05 1021 30.15 850 25.1 25.5 77.9 25 4.2 39.6
12:10 1021 30.15 850 25.1 25.7 78.3 25 4.3 39.7
12:15 1021 30.15 850 25.1 25.6 78 25 4.5 40.1
12:20 1021 30.15 850 25.1 26.4 79.5 24 4.2 39.6
12:25 1021 30.15 850 25.1 27.3 81.2 24 5.1 41.3
12:30 1021 30.15 850 25.1 27.5 81.6 24 5.2 41.4
12:35 1021 30.15 850 25.1 26.6 79.9 24 4.7 40.5
12:40 1021 30.15 850 25.1 26.9 80.4 25 5.4 41.7
12:45 1021 30.15 850 25.1 28 82.3 22 4.9 40.8
12:50 1020 30.12 850 25.1 28.6 83.4 21 4.7 40.5
12:55 1020 30.12 850 25.1 28.1 82.5 23 5.5 42
13:00 1020 30.12 850 25.1 27.7 81.8 23 5.1 41.2
13:05 1020 30.12 849 25.07 28 82.3 24 5.7 42.2
13:10 1020 30.12 849 25.07 28.6 83.6 22 5.2 41.4
13:15 1020 30.12 849 25.07 29 84.2 21 4.8 40.6
13:20 1020 30.12 849 25.07 28.7 83.6 22 5.3 41.5
13:25 1020 30.12 849 25.07 29 84.3 21 5 40.9
13:30 1020 30.12 849 25.07 29.5 85.1 21 5.5 42
13:35 1020 30.12 849 25.07 29.4 85 21 5.4 41.7
13:40 1020 30.12 849 25.07 29.6 85.4 20 4.3 39.7
13:45 1020 30.12 849 25.07 29.8 85.7 20 5 41
13:50 1020 30.12 849 25.07 29.3 84.8 20 4.6 40.2
13:55 1020 30.12 849 25.07 29.7 85.4 20 4.5 40.2
14:00 1020 30.12 849 25.07 29.4 84.9 21 5.4 41.7
14:05 1020 30.12 849 25.07 29.8 85.7 19 4.2 39.5
14:10 1020 30.12 849 25.07 30.3 86.6 18 3.5 38.4
14:15 1020 30.12 849 25.07 30.6 87.1 18 4.1 39.4
14:20 1020 30.12 849 25.07 30.1 86.2 18 3.9 39
14:25 1020 30.12 849 25.07 30.8 87.5 16 2.7 36.9
14:30 1020 30.12 849 25.07 31 87.7 16 2.6 36.7
14:35 1020 30.12 849 25.07 30.9 87.7 17 3.1 37.6
14:40 1020 30.12 849 25.07 30.2 86.4 17 3.2 37.8
14:45 1020 30.12 849 25.07 29.5 85.1 17 2.7 36.8
14:50 1020 30.12 849 25.07 30.3 86.5 16 2.1 35.8
14:55 1020 30.12 849 25.07 31.5 88.6 15 2.5 36.5
15:00 1019 30.09 849 25.07 30.9 87.7 16 2.3 36.2
15:05 1019 30.09 849 25.07 29.4 84.9 17 2.6 36.6
15:10 1019 30.09 849 25.07 29.7 85.4 16 1.6 34.8
15:15 1019 30.09 848 25.04 30.4 86.6 16 1.9 35.4
15:20 1019 30.09 848 25.04 30.3 86.5 16 1.8 35.3
15:25 1019 30.09 848 25.04 31.5 88.7 14 1.6 34.9
15:30 1019 30.09 848 25.04 32 89.7 14 1.9 35.5
15:35 1019 30.09 848 25.04 32.1 89.7 14 2.1 35.8
15:40 1019 30.09 848 25.04 31.9 89.4 15 2 35.6
15:45 1019 30.09 848 25.04 32.2 89.9 14 1.7 35.1
15:50 1019 30.09 848 25.04 32 89.7 14 1.8 35.2
15:55 1019 30.09 848 25.04 31.7 89 14 1.8 35.2
16:00 1019 30.09 848 25.04 31.2 88.2 14 1.4 34.5
16:05 1019 30.09 848 25.04 31.6 88.8 15 2.4 36.4
16:10 1019 30.09 848 25.04 31.8 89.3 14 1.8 35.3
16:15 1019 30.09 848 25.04 32.1 89.8 14 1.6 34.9
16:20 1019 30.09 848 25.04 32.9 91.2 13 1.6 34.9
16:25 1019 30.09 848 25.04 31.8 89.2 18 5.3 41.5
16:30 1019 30.09 848 25.04 29.3 84.8 23 6.6 43.9
16:35 1019 30.09 848 25.04 28.6 83.4 24 6.2 43.1
16:40 1019 30.09 848 25.04 28.5 83.3 23 5.4 41.8
16:45 1019 30.09 848 25.04 28.7 83.6 21 4.6 40.3
16:50 1019 30.09 848 25.04 28.9 84 23 5.8 42.5
16:55 1019 30.09 848 25.04 29 84.1 22 5.1 41.3
17:00 1019 30.09 848 25.04 29.4 84.9 22 5.5 41.9
17:05 1019 30.09 848 25.04 29.4 84.9 19 3.8 38.9
17:10 1019 30.09 848 25.04 29.1 84.4 21 4.8 40.6
17:15 1019 30.09 848 25.04 28.9 84 20 4.1 39.4
17:20 1019 30.09 848 25.04 29.1 84.3 20 4.4 39.9
17:25 1019 30.09 848 25.04 28.7 83.7 22 5.1 41.1
17:30 1019 30.09 848 25.04 28.5 83.3 23 5.4 41.8
17:35 1019 30.09 848 25.04 28.2 82.8 23 5.4 41.7
17:40 1019 30.09 848 25.04 28 82.4 22 4.8 40.6
17:45 1019 30.09 848 25.04 27.9 82.3 23 5.2 41.4
17:50 1019 30.09 848 25.04 27.6 81.7 25 5.9 42.5
17:55 1019 30.09 848 25.04 27.2 81 25 5.9 42.6
18:00 1019 30.09 848 25.04 27.2 80.9 26 6.4 43.5
18:05 1019 30.09 848 25.04 27.2 80.9 25 6 42.8
18:10 1019 30.09 848 25.04 27.3 81.1 25 5.9 42.6
18:15 1019 30.09 848 25.04 27.6 81.8 25 6.3 43.4
18:20 1018 30.06 848 25.04 27.8 82.1 23 5 41
18:25 1018 30.06 848 25.04 28 82.4 21 4.2 39.5
18:30 1018 30.06 848 25.04 28.2 82.8 21 4.2 39.5
18:35 1018 30.06 848 25.04 28.2 82.8 20 3.8 38.8
18:40 1018 30.06 848 25.04 28.3 82.9 21 4.3 39.8
18:45 1018 30.06 848 25.04 28.1 82.6 20 3.6 38.5
18:50 1018 30.06 848 25.04 28.2 82.8 19 2.9 37.2
18:55 1018 30.06 847 25.01 28.3 82.9 20 3.8 38.9
19:00 1018 30.06 847 25.01 28.1 82.6 21 3.7 38.7
19:05 1018 30.06 847 25.01 28 82.4 20 3 37.5
19:10 1018 30.06 847 25.01 28 82.4 20 3.5 38.3
19:15 1018 30.06 847 25.01 27.9 82.3 20 3.4 38
19:20 1018 30.06 847 25.01 27.8 82.1 21 3.8 38.8
19:25 1018 30.06 847 25.01 27.9 82.1 21 3.6 38.4
19:30 1018 30.06 847 25.01 27.8 82 19 2.5 36.5
19:35 1018 30.06 847 25.01 27.8 82 20 3.3 38
19:40 1018 30.06 848 25.04 27.7 81.9 22 4.1 39.3
19:45 1018 30.06 848 25.04 27.6 81.6 23 4.9 40.8
19:50 1018 30.06 848 25.04 27.5 81.5 21 3.4 38.1
19:55 1018 30.06 848 25.04 27.5 81.4 23 4.8 40.6
20:00 1018 30.06 848 25.04 27.2 81 23 4.3 39.7
20:05 1018 30.06 848 25.04 27.1 80.7 23 4.2 39.6
20:10 1018 30.06 848 25.04 26.7 80.1 26 5.7 42.2
20:15 1018 30.06 848 25.04 26.4 79.5 25 5 41
20:20 1018 30.06 848 25.04 26.4 79.5 25 5.1 41.3
20:25 1018 30.06 848 25.04 26.2 79.1 27 5.8 42.4
20:30 1018 30.06 848 25.04 25.8 78.4 28 6.1 43
20:35 1018 30.06 848 25.04 25.4 77.7 28 5.7 42.2
20:40 1018 30.06 848 25.04 25.2 77.4 28 5.8 42.5
20:45 1019 30.09 848 25.04 24.8 76.6 29 5.7 42.2
20:50 1019 30.09 848 25.04 24.4 76 29 5.6 42
20:55 1019 30.09 848 25.04 24.1 75.4 28 4.8 40.7
21:00 1019 30.09 848 25.04 24.1 75.3 28 4.7 40.5
21:05 1019 30.09 848 25.04 23.9 75.1 28 4.6 40.3
21:10 1019 30.09 848 25.04 23.9 74.9 29 4.8 40.6
21:15 1019 30.09 848 25.04 23.6 74.5 29 4.7 40.4
21:20 1019 30.09 848 25.04 23.4 74.1 29 4.6 40.3
21:25 1019 30.09 848 25.04 23.5 74.3 29 4.5 40.1
21:30 1019 30.09 848 25.04 23.6 74.5 29 4.5 40.2
21:35 1019 30.09 848 25.04 23.5 74.2 29 4.7 40.4
21:40 1019 30.09 848 25.04 23.4 74.1 29 4.8 40.6
21:45 1019 30.09 848 25.04 23.4 74.1 30 4.8 40.7
21:50 1019 30.09 848 25.04 23.3 73.9 30 4.9 40.8
21:55 1019 30.09 848 25.04 23 73.4 31 5.1 41.1
22:00 1019 30.09 848 25.04 22.8 73 31 4.9 40.7
22:05 1019 30.09 848 25.04 22.7 72.8 31 4.9 40.9
22:10 1019 30.09 848 25.04 22.5 72.5 31 5 40.9
22:15 1019 30.09 849 25.07 22.3 72.1 32 5 41
22:20 1019 30.09 849 25.07 22.2 71.9 32 5 41.1
22:25 1019 30.09 849 25.07 22 71.7 33 5.1 41.1
22:30 1019 30.09 849 25.07 22 71.6 33 5.2 41.3
22:35 1019 30.09 848 25.04 22 71.6 33 5 41
22:40 1019 30.09 849 25.07 21.9 71.4 33 4.9 40.8
22:45 1019 30.09 848 25.04 21.7 71 33 4.8 40.7
22:50 1019 30.09 848 25.04 21.7 71.1 33 4.8 40.6
22:55 1019 30.09 849 25.07 21.8 71.2 32 4.6 40.3
23:00 1019 30.09 848 25.04 21.8 71.2 32 4.6 40.3
23:05 1019 30.09 849 25.07 21.8 71.3 33 4.8 40.7
23:10 1019 30.09 849 25.07 21.7 71.1 32 4.7 40.5
23:15 1019 30.09 848 25.04 21.7 71 33 4.9 40.9
23:20 1019 30.09 848 25.04 21.7 71 34 5.2 41.3
23:25 1019 30.09 848 25.04 21.5 70.7 34 5.4 41.7
23:30 1019 30.09 849 25.07 21.2 70.1 41 7.6 45.6
23:35 1019 30.09 849 25.07 20.8 69.4 38 6 42.8
23:40 1019 30.09 849 25.07 20.6 69 37 5.5 41.9
23:45 1019 30.09 849 25.07 20.7 69.2 37 5.6 42.1
23:50 1020 30.12 849 25.07 20.5 68.8 37 5.3 41.5
23:55 1020 30.12 849 25.07 20.4 68.7 37 5.6 42
24:00 1020 30.12 849 25.07 20.6 69.1 34 4.5 40.1